createdAt,value
2023-05-08T00:00:34.220Z,5.50
2023-05-08T00:03:01.087Z,5.50
2023-05-08T00:05:28.081Z,5.50
2023-05-08T00:08:01.167Z,5.40
2023-05-08T00:10:29.196Z,5.30
2023-05-08T00:12:56.518Z,5.30
2023-05-08T00:15:23.382Z,5.30
2023-05-08T00:17:50.253Z,5.30
2023-05-08T00:20:17.211Z,5.30
2023-05-08T00:22:44.209Z,5.20
2023-05-08T00:25:11.032Z,5.30
2023-05-08T00:27:37.920Z,5.30
2023-05-08T00:30:06.222Z,5.30
2023-05-08T00:32:33.127Z,5.30
2023-05-08T00:34:59.895Z,5.20
2023-05-08T00:37:26.784Z,5.30
2023-05-08T00:39:53.574Z,5.20
2023-05-08T00:42:20.477Z,5.20
2023-05-08T00:44:47.952Z,5.20
2023-05-08T00:47:14.963Z,5.20
2023-05-08T00:49:42.747Z,5.20
2023-05-08T00:52:10.409Z,5.20
2023-05-08T00:54:38.819Z,5.20
2023-05-08T00:57:08.793Z,5.20
2023-05-08T00:59:37.009Z,5.20
2023-05-08T01:02:05.125Z,5.20
2023-05-08T01:04:33.434Z,5.20
2023-05-08T01:07:02.077Z,5.20
2023-05-08T01:09:28.938Z,5.20
2023-05-08T01:12:13.772Z,5.10
2023-05-08T01:14:52.035Z,5.10
2023-05-08T01:17:39.016Z,5.00
2023-05-08T01:20:09.052Z,5.00
2023-05-08T01:23:11.995Z,4.90
2023-05-08T01:26:00.478Z,4.90
2023-05-08T01:28:51.707Z,4.80
2023-05-08T01:31:43.127Z,4.80
2023-05-08T01:34:23.779Z,4.70
2023-05-08T01:36:53.043Z,4.70
2023-05-08T01:39:44.075Z,4.60
2023-05-08T01:42:32.715Z,4.60
2023-05-08T01:45:10.788Z,4.50
2023-05-08T01:47:38.796Z,4.50
2023-05-08T01:50:16.374Z,4.40
2023-05-08T01:52:46.867Z,4.50
2023-05-08T01:55:20.190Z,4.40
2023-05-08T01:57:53.298Z,4.50
2023-05-08T02:00:22.959Z,4.50
2023-05-08T02:02:54.509Z,4.50
2023-05-08T02:05:23.613Z,4.40
2023-05-08T02:07:52.058Z,4.40
2023-05-08T02:10:20.595Z,4.40
2023-05-08T02:12:48.722Z,4.30
2023-05-08T02:15:17.443Z,4.40
2023-05-08T02:17:47.372Z,4.40
2023-05-08T02:20:15.573Z,4.40
2023-05-08T02:22:44.932Z,4.40
2023-05-08T02:25:14.664Z,4.30
2023-05-08T02:27:46.077Z,4.40
2023-05-08T02:30:15.691Z,4.40
2023-05-08T02:32:48.081Z,4.40
2023-05-08T02:35:20.340Z,4.40
2023-05-08T02:37:52.625Z,4.40
2023-05-08T02:40:24.136Z,4.40
2023-05-08T02:42:51.176Z,4.40
2023-05-08T02:45:18.750Z,4.40
2023-05-08T02:48:02.469Z,4.40
2023-05-08T02:50:43.028Z,4.30
2023-05-08T02:53:16.116Z,4.30
2023-05-08T02:55:52.963Z,4.20
2023-05-08T02:58:25.037Z,4.30
2023-05-08T03:01:07.600Z,4.20
2023-05-08T03:03:46.507Z,4.20
2023-05-08T03:06:18.408Z,4.20
2023-05-08T03:08:47.135Z,4.10
2023-05-08T03:11:21.731Z,4.20
2023-05-08T03:13:49.795Z,4.20
2023-05-08T03:16:24.436Z,4.20
2023-05-08T03:19:00.055Z,4.20
2023-05-08T03:21:29.424Z,4.10
2023-05-08T03:23:59.540Z,4.10
2023-05-08T03:26:26.697Z,4.10
2023-05-08T03:28:54.403Z,4.10
2023-05-08T03:31:23.568Z,4.10
2023-05-08T03:33:55.016Z,4.10
2023-05-08T03:36:22.561Z,4.10
2023-05-08T03:38:49.512Z,4.10
2023-05-08T03:41:17.760Z,4.10
2023-05-08T03:43:45.513Z,4.10
2023-05-08T03:46:13.314Z,4.10
2023-05-08T03:48:41.330Z,4.10
2023-05-08T03:51:08.180Z,4.10
2023-05-08T03:53:35.697Z,4.20
2023-05-08T03:56:02.850Z,4.20
2023-05-08T03:58:48.699Z,4.30
2023-05-08T04:01:21.354Z,4.30
2023-05-08T04:04:02.960Z,4.40
2023-05-08T04:06:48.757Z,4.50
2023-05-08T04:09:31.492Z,4.50
2023-05-08T04:12:05.867Z,4.60
2023-05-08T04:14:45.422Z,4.60
2023-05-08T04:17:16.205Z,4.70
2023-05-08T04:19:47.171Z,4.70
2023-05-08T04:22:17.028Z,4.80
2023-05-08T04:24:47.567Z,4.80
2023-05-08T04:27:15.298Z,4.90
2023-05-08T04:29:42.506Z,4.90
2023-05-08T04:32:10.639Z,5.00
2023-05-08T04:34:38.396Z,5.00
2023-05-08T04:37:07.881Z,5.10
2023-05-08T04:39:34.803Z,5.10
2023-05-08T04:42:03.645Z,5.20
2023-05-08T04:44:30.507Z,5.20
2023-05-08T04:46:57.399Z,5.30
2023-05-08T04:49:24.218Z,5.40
2023-05-08T04:51:51.127Z,5.40
2023-05-08T04:54:18.062Z,5.50
2023-05-08T04:56:44.918Z,5.60
2023-05-08T04:59:15.987Z,5.70
2023-05-08T05:01:45.721Z,5.70
2023-05-08T05:04:15.630Z,5.80
2023-05-08T05:06:42.573Z,5.90
2023-05-08T05:09:09.538Z,6.00
2023-05-08T05:11:36.471Z,6.10
2023-05-08T05:14:03.309Z,6.20
2023-05-08T05:16:30.119Z,6.30
2023-05-08T05:18:56.892Z,6.40
2023-05-08T05:21:23.733Z,6.50
2023-05-08T05:23:50.551Z,6.60
2023-05-08T05:26:17.537Z,6.70
2023-05-08T05:28:44.325Z,6.80
2023-05-08T05:31:11.153Z,6.90
2023-05-08T05:33:38.257Z,7.00
2023-05-08T05:36:05.387Z,7.20
2023-05-08T05:38:32.351Z,7.20
2023-05-08T05:40:59.156Z,7.30
2023-05-08T05:43:25.991Z,7.40
2023-05-08T05:45:52.831Z,7.50
2023-05-08T05:48:19.634Z,7.60
2023-05-08T05:50:46.494Z,7.70
2023-05-08T05:53:13.504Z,7.80
2023-05-08T05:55:41.221Z,7.80
2023-05-08T05:58:07.958Z,7.90
2023-05-08T06:00:34.819Z,8.10
2023-05-08T06:03:02.957Z,8.20
2023-05-08T06:05:31.146Z,8.40
2023-05-08T06:07:58.199Z,8.50
2023-05-08T06:10:25.243Z,8.80
2023-05-08T06:12:51.988Z,9.20
2023-05-08T06:15:18.943Z,9.60
2023-05-08T06:17:45.765Z,9.90
2023-05-08T06:20:13.116Z,10.40
2023-05-08T06:22:41.350Z,10.80
2023-05-08T06:25:09.736Z,11.30
2023-05-08T06:27:36.870Z,11.90
2023-05-08T06:30:07.846Z,12.40
2023-05-08T06:32:34.681Z,12.80
2023-05-08T06:35:01.620Z,13.60
2023-05-08T06:37:28.405Z,14.00
2023-05-08T06:40:10.184Z,14.70
2023-05-08T06:42:38.641Z,15.40
2023-05-08T06:45:06.030Z,15.60
2023-05-08T06:47:33.087Z,16.00
2023-05-08T06:50:00.776Z,16.80
2023-05-08T06:52:27.575Z,17.10
2023-05-08T06:54:54.676Z,17.50
2023-05-08T06:57:21.572Z,18.20
2023-05-08T06:59:48.346Z,18.40
2023-05-08T07:02:16.367Z,19.10
2023-05-08T07:04:44.555Z,19.50
2023-05-08T07:07:12.778Z,19.80
2023-05-08T07:09:39.834Z,20.30
2023-05-08T07:12:07.012Z,20.50
2023-05-08T07:14:33.797Z,20.40
2023-05-08T07:17:06.850Z,20.30
2023-05-08T07:19:37.482Z,20.20
2023-05-08T07:22:05.364Z,20.30
2023-05-08T07:24:33.448Z,20.10
2023-05-08T07:27:00.257Z,19.80
2023-05-08T07:29:27.386Z,20.40
2023-05-08T07:31:54.226Z,20.70
2023-05-08T07:34:21.433Z,20.70
2023-05-08T07:36:48.325Z,21.10
2023-05-08T07:39:15.711Z,20.90
2023-05-08T07:41:43.093Z,20.70
2023-05-08T07:44:09.967Z,20.70
2023-05-08T07:46:37.416Z,20.50
2023-05-08T07:49:04.283Z,20.90
2023-05-08T07:51:31.942Z,21.30
2023-05-08T07:53:58.767Z,21.60
2023-05-08T07:56:25.586Z,21.80
2023-05-08T07:58:52.400Z,21.70
2023-05-08T08:01:19.316Z,21.70
2023-05-08T08:03:46.843Z,22.00
2023-05-08T08:06:13.996Z,22.30
2023-05-08T08:08:41.111Z,22.30
2023-05-08T08:11:08.118Z,22.30
2023-05-08T08:13:34.955Z,22.80
2023-05-08T08:16:04.128Z,23.30
2023-05-08T08:18:34.751Z,23.30
2023-05-08T08:21:01.740Z,23.70
2023-05-08T08:23:28.672Z,23.70
2023-05-08T08:25:55.626Z,23.30
2023-05-08T08:28:22.614Z,23.80
2023-05-08T08:30:49.574Z,23.60
2023-05-08T08:33:18.789Z,23.70
2023-05-08T08:35:46.043Z,24.00
2023-05-08T08:38:12.975Z,24.20
2023-05-08T08:40:41.291Z,24.10
2023-05-08T08:43:09.134Z,24.10
2023-05-08T08:45:37.557Z,24.20
2023-05-08T08:48:05.293Z,24.30
2023-05-08T08:50:33.589Z,24.40
2023-05-08T08:53:25.791Z,24.70
2023-05-08T08:55:55.739Z,24.70
2023-05-08T08:58:36.544Z,24.70
2023-05-08T09:01:05.641Z,25.10
2023-05-08T09:03:32.799Z,25.20
2023-05-08T09:06:01.465Z,24.90
2023-05-08T09:08:28.732Z,25.40
2023-05-08T09:10:58.837Z,25.50
2023-05-08T09:13:26.210Z,25.60
2023-05-08T09:15:53.168Z,26.10
2023-05-08T09:18:20.119Z,26.10
2023-05-08T09:20:47.888Z,26.30
2023-05-08T09:23:17.441Z,26.40
2023-05-08T09:25:48.479Z,26.70
2023-05-08T09:28:23.088Z,27.10
2023-05-08T09:30:52.715Z,27.60
2023-05-08T09:33:20.664Z,27.60
2023-05-08T09:35:50.789Z,27.50
2023-05-08T09:38:37.567Z,27.60
2023-05-08T09:41:16.381Z,27.40
2023-05-08T09:43:44.706Z,27.50
2023-05-08T09:46:23.548Z,27.70
2023-05-08T09:48:51.618Z,28.00
2023-05-08T09:51:18.693Z,28.00
2023-05-08T09:53:45.766Z,28.20
2023-05-08T09:56:13.067Z,28.00
2023-05-08T09:58:44.240Z,28.30
2023-05-08T10:01:35.866Z,28.40
2023-05-08T10:04:05.551Z,28.60
2023-05-08T10:06:33.375Z,28.40
2023-05-08T10:09:14.649Z,28.70
2023-05-08T10:11:51.916Z,27.80
2023-05-08T10:14:19.853Z,27.80
2023-05-08T10:16:54.614Z,28.10
2023-05-08T10:19:28.314Z,28.70
2023-05-08T10:21:56.385Z,29.10
2023-05-08T10:24:35.074Z,29.40
2023-05-08T10:27:24.608Z,29.60
2023-05-08T10:29:54.588Z,29.80
2023-05-08T10:32:23.099Z,29.80
2023-05-08T10:34:56.844Z,29.50
2023-05-08T10:37:23.575Z,29.70
2023-05-08T10:39:52.022Z,29.70
2023-05-08T10:42:19.471Z,29.60
2023-05-08T10:44:46.996Z,29.90
2023-05-08T10:47:27.771Z,29.90
2023-05-08T10:50:16.245Z,29.80
2023-05-08T10:52:45.752Z,29.50
2023-05-08T10:55:31.694Z,29.70
2023-05-08T10:58:15.001Z,29.70
2023-05-08T11:00:54.056Z,29.50
2023-05-08T11:03:31.470Z,29.60
2023-05-08T11:06:00.856Z,29.80
2023-05-08T11:08:29.293Z,29.90
2023-05-08T11:11:02.157Z,29.90
2023-05-08T11:13:36.946Z,30.00
2023-05-08T11:16:06.952Z,29.70
2023-05-08T11:21:14.447Z,30.10
2023-05-08T11:23:41.195Z,29.90
2023-05-08T11:26:16.930Z,30.00
2023-05-08T11:28:57.308Z,30.20
2023-05-08T11:31:24.313Z,29.70
2023-05-08T11:33:51.311Z,29.30
2023-05-08T11:36:24.533Z,29.70
2023-05-08T11:39:12.762Z,29.90
2023-05-08T11:41:39.677Z,30.10
2023-05-08T11:44:16.810Z,29.80
2023-05-08T11:46:48.044Z,29.60
2023-05-08T11:49:17.276Z,29.30
2023-05-08T11:51:57.926Z,29.40
2023-05-08T11:54:26.260Z,29.80
2023-05-08T11:56:56.834Z,29.70
2023-05-08T11:59:23.655Z,28.70
2023-05-08T12:04:21.276Z,28.90
2023-05-08T12:06:49.318Z,29.30
2023-05-08T12:09:18.363Z,29.10
2023-05-08T12:11:45.564Z,29.10
2023-05-08T12:14:14.966Z,29.50
2023-05-08T12:16:41.810Z,29.10
2023-05-08T12:19:13.316Z,29.20
2023-05-08T12:21:48.619Z,29.50
2023-05-08T12:24:22.894Z,29.30
2023-05-08T12:26:50.521Z,29.50
2023-05-08T12:29:19.454Z,29.70
2023-05-08T12:31:47.448Z,29.80
2023-05-08T12:34:14.427Z,29.00
2023-05-08T12:36:41.266Z,29.10
2023-05-08T12:39:18.834Z,29.20
2023-05-08T12:41:52.906Z,28.70
2023-05-08T12:44:22.129Z,28.80
2023-05-08T12:46:53.665Z,28.50
2023-05-08T12:49:28.884Z,28.20
2023-05-08T12:52:06.764Z,28.50
2023-05-08T12:54:34.593Z,27.90
2023-05-08T12:57:01.621Z,28.00
2023-05-08T12:59:29.870Z,28.00
2023-05-08T13:01:56.850Z,28.00
2023-05-08T13:04:23.727Z,27.70
2023-05-08T13:06:57.815Z,27.40
2023-05-08T13:09:24.623Z,27.60
2023-05-08T13:11:51.395Z,27.80
2023-05-08T13:14:18.183Z,27.70
2023-05-08T13:16:46.256Z,27.60
2023-05-08T13:19:14.674Z,27.30
2023-05-08T13:21:41.852Z,27.40
2023-05-08T13:24:09.191Z,27.50
2023-05-08T13:26:36.064Z,26.70
2023-05-08T13:29:02.830Z,26.90
2023-05-08T13:31:29.673Z,27.00
2023-05-08T13:33:56.571Z,27.20
2023-05-08T13:36:24.380Z,26.60
2023-05-08T13:38:54.895Z,26.60
2023-05-08T13:41:22.106Z,26.50
2023-05-08T13:43:48.974Z,26.80
2023-05-08T13:46:15.738Z,26.80
2023-05-08T13:48:42.572Z,26.50
2023-05-08T13:51:09.333Z,26.30
2023-05-08T13:53:36.187Z,26.10
2023-05-08T13:56:02.975Z,26.10
2023-05-08T13:58:29.777Z,26.00
2023-05-08T14:00:56.581Z,26.00
2023-05-08T14:03:23.559Z,26.00
2023-05-08T14:05:50.676Z,26.10
2023-05-08T14:08:17.445Z,26.20
2023-05-08T14:10:44.155Z,26.30
2023-05-08T14:13:11.138Z,26.30
2023-05-08T14:15:38.141Z,26.10
2023-05-08T14:18:05.047Z,26.10
2023-05-08T14:20:31.944Z,25.90
2023-05-08T14:23:00.180Z,25.90
2023-05-08T14:25:27.445Z,25.90
2023-05-08T14:27:54.390Z,25.90
2023-05-08T14:30:21.232Z,25.90
2023-05-08T14:32:47.982Z,25.90
2023-05-08T14:35:14.953Z,25.50
2023-05-08T14:37:41.855Z,25.40
2023-05-08T14:40:09.224Z,25.60
2023-05-08T14:42:36.497Z,25.70
2023-05-08T14:45:03.516Z,26.00
2023-05-08T14:47:32.328Z,26.10
2023-05-08T14:49:59.141Z,26.20
2023-05-08T14:52:26.055Z,26.30
2023-05-08T14:57:39.894Z,26.00
2023-05-08T15:00:07.608Z,26.20
2023-05-08T15:02:34.649Z,26.30
2023-05-08T15:05:04.479Z,26.20
2023-05-08T15:07:35.329Z,26.10
2023-05-08T15:10:02.653Z,25.90
2023-05-08T15:12:29.601Z,25.90
2023-05-08T15:14:56.508Z,25.70
2023-05-08T15:17:23.355Z,25.80
2023-05-08T15:19:50.248Z,25.60
2023-05-08T15:22:17.896Z,25.50
2023-05-08T15:24:44.683Z,25.40
2023-05-08T15:27:11.794Z,24.90
2023-05-08T15:29:41.363Z,24.60
2023-05-08T15:32:08.282Z,24.80
2023-05-08T15:34:35.387Z,24.70
2023-05-08T15:37:02.226Z,24.70
2023-05-08T15:39:29.469Z,24.50
2023-05-08T15:41:56.344Z,24.30
2023-05-08T15:44:24.860Z,24.30
2023-05-08T15:46:53.435Z,24.20
2023-05-08T15:49:25.661Z,24.10
2023-05-08T15:51:53.179Z,24.00
2023-05-08T15:54:19.946Z,23.90
2023-05-08T15:56:47.112Z,23.70
2023-05-08T15:59:13.958Z,23.60
2023-05-08T16:01:41.852Z,23.10
2023-05-08T16:04:08.997Z,23.10
2023-05-08T16:06:35.788Z,23.20
2023-05-08T16:09:03.003Z,23.20
2023-05-08T16:11:32.858Z,22.90
2023-05-08T16:13:59.778Z,22.90
2023-05-08T16:16:27.451Z,22.90
2023-05-08T16:18:54.551Z,22.90
2023-05-08T16:21:25.679Z,22.80
2023-05-08T16:23:53.371Z,22.70
2023-05-08T16:26:20.257Z,22.70
2023-05-08T16:28:50.036Z,22.60
2023-05-08T16:31:17.100Z,22.60
2023-05-08T16:33:44.162Z,22.40
2023-05-08T16:36:11.131Z,22.30
2023-05-08T16:38:37.887Z,22.40
2023-05-08T16:41:06.042Z,22.30
2023-05-08T16:43:33.039Z,22.20
2023-05-08T16:45:59.852Z,22.00
2023-05-08T16:48:27.952Z,22.00
2023-05-08T16:50:55.742Z,21.80
2023-05-08T16:53:22.831Z,21.80
2023-05-08T16:55:49.622Z,21.70
2023-05-08T16:58:16.495Z,21.70
2023-05-08T17:00:43.277Z,21.60
2023-05-08T17:03:10.226Z,21.50
2023-05-08T17:05:37.618Z,21.40
2023-05-08T17:08:04.608Z,21.10
2023-05-08T17:10:33.413Z,20.90
2023-05-08T17:13:00.206Z,20.70
2023-05-08T17:15:27.310Z,20.60
2023-05-08T17:17:55.955Z,20.50
2023-05-08T17:20:22.817Z,20.30
2023-05-08T17:22:49.624Z,20.00
2023-05-08T17:25:16.503Z,19.70
2023-05-08T17:27:43.339Z,19.50
2023-05-08T17:30:12.253Z,19.30
2023-05-08T17:32:39.436Z,19.10
2023-05-08T17:35:06.841Z,18.90
2023-05-08T17:37:33.639Z,18.60
2023-05-08T17:40:00.468Z,18.50
2023-05-08T17:42:27.347Z,18.30
2023-05-08T17:44:54.117Z,18.20
2023-05-08T17:47:20.922Z,18.00
2023-05-08T17:49:47.698Z,17.80
2023-05-08T17:52:14.576Z,17.70
2023-05-08T17:54:41.481Z,17.50
2023-05-08T17:57:08.280Z,17.40
2023-05-08T17:59:35.000Z,17.30
2023-05-08T18:02:01.991Z,17.20
2023-05-08T18:04:29.000Z,17.00
2023-05-08T18:06:55.859Z,16.90
2023-05-08T18:09:22.778Z,16.80
2023-05-08T18:11:49.618Z,16.70
2023-05-08T18:14:16.453Z,16.60
2023-05-08T18:16:43.263Z,16.50
2023-05-08T18:19:10.153Z,16.40
2023-05-08T18:21:36.913Z,16.20
2023-05-08T18:24:03.926Z,16.10
2023-05-08T18:26:30.730Z,16.00
2023-05-08T18:28:57.660Z,15.90
2023-05-08T18:31:24.552Z,15.80
2023-05-08T18:33:51.436Z,15.70
2023-05-08T18:36:18.238Z,15.60
2023-05-08T18:38:45.035Z,15.50
2023-05-08T18:41:11.877Z,15.30
2023-05-08T18:43:38.764Z,15.30
2023-05-08T18:46:12.048Z,15.10
2023-05-08T18:48:39.902Z,15.00
2023-05-08T18:51:07.092Z,14.90
2023-05-08T18:53:38.171Z,14.80
2023-05-08T18:56:05.745Z,14.70
2023-05-08T18:58:32.495Z,14.60
2023-05-08T19:00:59.599Z,14.50
2023-05-08T19:03:26.832Z,14.40
2023-05-08T19:05:55.162Z,14.30
2023-05-08T19:08:21.944Z,14.20
2023-05-08T19:10:48.861Z,14.00
2023-05-08T19:13:16.338Z,14.00
2023-05-08T19:15:43.229Z,13.90
2023-05-08T19:18:10.284Z,13.80
2023-05-08T19:20:37.320Z,13.70
2023-05-08T19:23:04.221Z,13.60
2023-05-08T19:25:31.082Z,13.50
2023-05-08T19:27:58.753Z,13.40
2023-05-08T19:30:25.639Z,13.30
2023-05-08T19:32:52.479Z,13.20
2023-05-08T19:35:19.306Z,13.20
2023-05-08T19:37:46.418Z,13.10
2023-05-08T19:40:14.000Z,13.00
2023-05-08T19:42:42.002Z,12.90
2023-05-08T19:45:09.667Z,12.80
2023-05-08T19:47:36.486Z,12.80
2023-05-08T19:50:03.586Z,12.70
2023-05-08T19:52:30.371Z,12.60
2023-05-08T19:54:57.440Z,12.50
2023-05-08T19:57:24.330Z,12.50
2023-05-08T19:59:51.136Z,12.40
2023-05-08T20:02:17.931Z,12.30
2023-05-08T20:05:04.350Z,12.20
2023-05-08T20:07:31.716Z,12.20
2023-05-08T20:09:58.912Z,12.00
2023-05-08T20:12:25.745Z,12.00
2023-05-08T20:14:53.588Z,11.90
2023-05-08T20:17:20.551Z,11.80
2023-05-08T20:19:47.352Z,11.80
2023-05-08T20:22:14.238Z,11.80
2023-05-08T20:24:41.042Z,11.70
2023-05-08T20:27:07.854Z,11.70
2023-05-08T20:29:34.671Z,11.70
2023-05-08T20:32:02.333Z,11.70
2023-05-08T20:34:29.833Z,11.70
2023-05-08T20:36:59.457Z,11.80
2023-05-08T20:39:26.488Z,11.80
2023-05-08T20:41:53.277Z,11.80
2023-05-08T20:44:19.972Z,11.70
2023-05-08T20:46:46.743Z,11.70
2023-05-08T20:49:13.826Z,11.60
2023-05-08T20:51:40.752Z,11.60
2023-05-08T20:54:07.523Z,11.60
2023-05-08T20:56:35.781Z,11.50
2023-05-08T20:59:02.787Z,11.50
2023-05-08T21:01:29.614Z,11.40
2023-05-08T21:03:56.628Z,11.40
2023-05-08T21:06:23.413Z,11.40
2023-05-08T21:08:50.446Z,11.40
2023-05-08T21:11:17.316Z,11.30
2023-05-08T21:13:44.550Z,11.30
2023-05-08T21:16:11.817Z,11.30
2023-05-08T21:18:38.771Z,11.20
2023-05-08T21:21:14.825Z,11.20
2023-05-08T21:23:41.644Z,11.20
2023-05-08T21:26:08.457Z,11.10
2023-05-08T21:28:35.291Z,11.00
2023-05-08T21:31:02.161Z,11.00
2023-05-08T21:33:29.038Z,10.90
2023-05-08T21:35:55.997Z,10.80
2023-05-08T21:38:22.803Z,10.80
2023-05-08T21:40:49.930Z,10.70
2023-05-08T21:43:16.742Z,10.70
2023-05-08T21:45:43.549Z,10.60
2023-05-08T21:48:10.315Z,10.60
2023-05-08T21:50:37.201Z,10.50
2023-05-08T21:53:04.305Z,10.50
2023-05-08T21:55:32.497Z,10.40
2023-05-08T21:57:59.388Z,10.40
2023-05-08T22:00:26.844Z,10.30
2023-05-08T22:02:53.739Z,10.30
2023-05-08T22:05:20.658Z,10.20
2023-05-08T22:07:47.603Z,10.20
2023-05-08T22:10:14.406Z,10.20
2023-05-08T22:12:41.392Z,10.10
2023-05-08T22:15:17.917Z,10.10
2023-05-08T22:17:45.192Z,10.00
2023-05-08T22:20:14.572Z,10.00
2023-05-08T22:22:41.971Z,10.00
2023-05-08T22:25:09.094Z,9.90
2023-05-08T22:27:35.992Z,9.90
2023-05-08T22:30:03.109Z,9.90
2023-05-08T22:32:29.898Z,9.80
2023-05-08T22:34:56.716Z,9.80
2023-05-08T22:37:23.615Z,9.80
2023-05-08T22:39:50.590Z,9.70
2023-05-08T22:42:17.723Z,9.70
2023-05-08T22:44:45.284Z,9.70
2023-05-08T22:47:13.361Z,9.70
2023-05-08T22:49:41.371Z,9.60
2023-05-08T22:52:09.329Z,9.60
2023-05-08T22:54:36.219Z,9.50
2023-05-08T22:57:03.062Z,9.40
2023-05-08T22:59:29.932Z,9.40
2023-05-08T23:01:56.675Z,9.30
2023-05-08T23:04:23.487Z,9.30
2023-05-08T23:06:50.654Z,9.30
2023-05-08T23:09:17.491Z,9.30
2023-05-08T23:11:44.414Z,9.20
2023-05-08T23:14:11.167Z,9.20
2023-05-08T23:16:38.087Z,9.10
2023-05-08T23:19:05.064Z,9.00
2023-05-08T23:21:32.172Z,9.00
2023-05-08T23:23:59.339Z,9.00
2023-05-08T23:26:26.119Z,9.00
2023-05-08T23:28:52.952Z,9.00
2023-05-08T23:31:19.761Z,9.00
2023-05-08T23:33:46.741Z,9.00
2023-05-08T23:36:13.602Z,9.00
2023-05-08T23:38:40.436Z,9.00
2023-05-08T23:41:07.866Z,8.90
2023-05-08T23:43:34.627Z,8.90
2023-05-08T23:46:01.431Z,8.90
2023-05-08T23:48:28.436Z,8.80
2023-05-08T23:50:55.254Z,8.80
2023-05-08T23:53:21.987Z,8.70
2023-05-08T23:55:52.476Z,8.70
2023-05-08T23:58:19.354Z,8.60
